sensor_id;sensor_type;location;lat;lon;timestamp;temperature;humidity
54192;DHT22;40101;53.002;6.488;2024-01-06T00:01:51;2.60;99.90
54192;DHT22;40101;53.002;6.488;2024-01-06T00:04:17;2.60;99.90
54192;DHT22;40101;53.002;6.488;2024-01-06T00:06:42;2.50;99.90
54192;DHT22;40101;53.002;6.488;2024-01-06T00:09:08;2.50;99.90
54192;DHT22;40101;53.002;6.488;2024-01-06T00:11:33;2.50;99.90
54192;DHT22;40101;53.002;6.488;2024-01-06T00:13:59;2.50;99.90
54192;DHT22;40101;53.002;6.488;2024-01-06T00:16:25;2.50;99.90
54192;DHT22;40101;53.002;6.488;2024-01-06T00:18:50;2.50;99.90
54192;DHT22;40101;53.002;6.488;2024-01-06T00:21:16;2.50;99.90
54192;DHT22;40101;53.002;6.488;2024-01-06T00:23:42;2.50;99.90
54192;DHT22;40101;53.002;6.488;2024-01-06T00:26:09;2.40;99.90
54192;DHT22;40101;53.002;6.488;2024-01-06T00:28:35;2.40;99.90
54192;DHT22;40101;53.002;6.488;2024-01-06T00:31:00;2.40;99.90
54192;DHT22;40101;53.002;6.488;2024-01-06T00:33:26;2.40;99.90
54192;DHT22;40101;53.002;6.488;2024-01-06T00:35:52;2.40;99.90
54192;DHT22;40101;53.002;6.488;2024-01-06T00:38:17;2.40;99.90
54192;DHT22;40101;53.002;6.488;2024-01-06T00:40:43;2.40;99.90
54192;DHT22;40101;53.002;6.488;2024-01-06T00:43:09;2.30;99.90
54192;DHT22;40101;53.002;6.488;2024-01-06T00:45:34;2.30;99.90
54192;DHT22;40101;53.002;6.488;2024-01-06T00:48:00;2.30;99.90
54192;DHT22;40101;53.002;6.488;2024-01-06T00:50:26;2.30;99.90
54192;DHT22;40101;53.002;6.488;2024-01-06T00:52:51;2.30;99.90
54192;DHT22;40101;53.002;6.488;2024-01-06T00:55:21;2.30;99.90
54192;DHT22;40101;53.002;6.488;2024-01-06T00:57:47;2.30;99.90
54192;DHT22;40101;53.002;6.488;2024-01-06T01:00:14;2.30;99.90
54192;DHT22;40101;53.002;6.488;2024-01-06T01:02:39;2.30;99.90
54192;DHT22;40101;53.002;6.488;2024-01-06T01:05:05;2.40;99.90
54192;DHT22;40101;53.002;6.488;2024-01-06T01:07:33;2.40;99.90
54192;DHT22;40101;53.002;6.488;2024-01-06T01:09:58;2.40;99.90
54192;DHT22;40101;53.002;6.488;2024-01-06T01:12:24;2.30;99.90
54192;DHT22;40101;53.002;6.488;2024-01-06T01:14:50;2.30;99.90
54192;DHT22;40101;53.002;6.488;2024-01-06T01:17:16;2.30;99.90
54192;DHT22;40101;53.002;6.488;2024-01-06T01:19:42;2.30;99.90
54192;DHT22;40101;53.002;6.488;2024-01-06T01:22:08;2.20;99.90
54192;DHT22;40101;53.002;6.488;2024-01-06T01:24:33;2.20;99.90
54192;DHT22;40101;53.002;6.488;2024-01-06T01:26:59;2.20;99.90
54192;DHT22;40101;53.002;6.488;2024-01-06T01:29:25;2.20;99.90
54192;DHT22;40101;53.002;6.488;2024-01-06T01:31:50;2.20;99.90
54192;DHT22;40101;53.002;6.488;2024-01-06T01:34:16;2.10;99.90
54192;DHT22;40101;53.002;6.488;2024-01-06T01:36:42;2.10;99.90
54192;DHT22;40101;53.002;6.488;2024-01-06T01:39:07;2.10;99.90
54192;DHT22;40101;53.002;6.488;2024-01-06T01:41:33;2.10;99.90
54192;DHT22;40101;53.002;6.488;2024-01-06T01:43:58;2.10;99.90
54192;DHT22;40101;53.002;6.488;2024-01-06T01:46:28;2.10;99.90
54192;DHT22;40101;53.002;6.488;2024-01-06T01:48:55;2.10;99.90
54192;DHT22;40101;53.002;6.488;2024-01-06T01:51:21;2.10;99.90
54192;DHT22;40101;53.002;6.488;2024-01-06T01:53:47;2.10;99.90
54192;DHT22;40101;53.002;6.488;2024-01-06T01:56:13;2.10;99.90
54192;DHT22;40101;53.002;6.488;2024-01-06T01:58:39;2.00;99.90
54192;DHT22;40101;53.002;6.488;2024-01-06T02:01:06;2.00;99.90
54192;DHT22;40101;53.002;6.488;2024-01-06T02:03:32;2.00;99.90
54192;DHT22;40101;53.002;6.488;2024-01-06T02:05:58;2.00;99.90
54192;DHT22;40101;53.002;6.488;2024-01-06T02:08:24;2.40;99.90
54192;DHT22;40101;53.002;6.488;2024-01-06T02:10:50;2.00;99.90
54192;DHT22;40101;53.002;6.488;2024-01-06T02:13:15;2.00;99.90
54192;DHT22;40101;53.002;6.488;2024-01-06T02:15:41;2.00;99.90
54192;DHT22;40101;53.002;6.488;2024-01-06T02:18:07;1.90;99.90
54192;DHT22;40101;53.002;6.488;2024-01-06T02:20:32;2.00;99.90
54192;DHT22;40101;53.002;6.488;2024-01-06T02:22:58;2.00;99.90
54192;DHT22;40101;53.002;6.488;2024-01-06T02:25:26;2.00;99.90
54192;DHT22;40101;53.002;6.488;2024-01-06T02:27:51;1.90;99.90
54192;DHT22;40101;53.002;6.488;2024-01-06T02:30:17;1.90;99.90
54192;DHT22;40101;53.002;6.488;2024-01-06T02:32:43;1.80;99.90
54192;DHT22;40101;53.002;6.488;2024-01-06T02:35:08;1.80;99.90
54192;DHT22;40101;53.002;6.488;2024-01-06T02:37:34;1.80;99.90
54192;DHT22;40101;53.002;6.488;2024-01-06T02:39:59;1.80;99.90
54192;DHT22;40101;53.002;6.488;2024-01-06T02:42:25;1.80;99.90
54192;DHT22;40101;53.002;6.488;2024-01-06T02:44:51;1.80;99.90
54192;DHT22;40101;53.002;6.488;2024-01-06T02:47:17;1.80;99.90
54192;DHT22;40101;53.002;6.488;2024-01-06T02:49:42;1.80;99.90
54192;DHT22;40101;53.002;6.488;2024-01-06T02:52:09;1.80;99.90
54192;DHT22;40101;53.002;6.488;2024-01-06T02:54:35;1.80;99.90
54192;DHT22;40101;53.002;6.488;2024-01-06T02:57:00;1.80;99.90
54192;DHT22;40101;53.002;6.488;2024-01-06T02:59:26;1.70;99.90
54192;DHT22;40101;53.002;6.488;2024-01-06T03:01:52;1.70;99.90
54192;DHT22;40101;53.002;6.488;2024-01-06T03:04:17;1.70;99.90
54192;DHT22;40101;53.002;6.488;2024-01-06T03:06:43;1.70;99.90
54192;DHT22;40101;53.002;6.488;2024-01-06T03:09:08;1.70;99.90
54192;DHT22;40101;53.002;6.488;2024-01-06T03:11:34;1.70;99.90
54192;DHT22;40101;53.002;6.488;2024-01-06T03:13:59;1.70;99.90
54192;DHT22;40101;53.002;6.488;2024-01-06T03:16:25;1.70;99.90
54192;DHT22;40101;53.002;6.488;2024-01-06T03:18:51;1.70;99.90
54192;DHT22;40101;53.002;6.488;2024-01-06T03:21:17;1.60;99.90
54192;DHT22;40101;53.002;6.488;2024-01-06T03:23:43;1.60;99.90
54192;DHT22;40101;53.002;6.488;2024-01-06T03:26:09;1.50;99.90
54192;DHT22;40101;53.002;6.488;2024-01-06T03:28:35;1.50;99.90
54192;DHT22;40101;53.002;6.488;2024-01-06T03:31:00;1.50;99.90
54192;DHT22;40101;53.002;6.488;2024-01-06T03:33:26;1.50;99.90
54192;DHT22;40101;53.002;6.488;2024-01-06T03:35:51;1.50;99.90
54192;DHT22;40101;53.002;6.488;2024-01-06T03:38:17;1.50;99.90
54192;DHT22;40101;53.002;6.488;2024-01-06T03:40:42;1.50;99.90
54192;DHT22;40101;53.002;6.488;2024-01-06T03:43:08;1.50;99.90
54192;DHT22;40101;53.002;6.488;2024-01-06T03:45:34;1.50;99.90
54192;DHT22;40101;53.002;6.488;2024-01-06T03:47:59;1.50;99.90
54192;DHT22;40101;53.002;6.488;2024-01-06T03:50:25;1.50;99.90
54192;DHT22;40101;53.002;6.488;2024-01-06T03:52:50;1.50;99.90
54192;DHT22;40101;53.002;6.488;2024-01-06T03:55:16;1.50;99.90
54192;DHT22;40101;53.002;6.488;2024-01-06T03:57:42;1.50;99.90
54192;DHT22;40101;53.002;6.488;2024-01-06T04:00:08;1.40;99.90
54192;DHT22;40101;53.002;6.488;2024-01-06T04:02:33;1.40;99.90
54192;DHT22;40101;53.002;6.488;2024-01-06T04:04:59;1.40;99.90
54192;DHT22;40101;53.002;6.488;2024-01-06T04:07:25;1.40;99.90
54192;DHT22;40101;53.002;6.488;2024-01-06T04:09:50;1.30;99.90
54192;DHT22;40101;53.002;6.488;2024-01-06T04:12:16;1.30;99.90
54192;DHT22;40101;53.002;6.488;2024-01-06T04:14:42;1.30;99.90
54192;DHT22;40101;53.002;6.488;2024-01-06T04:17:08;1.30;99.90
54192;DHT22;40101;53.002;6.488;2024-01-06T04:19:33;1.30;99.90
54192;DHT22;40101;53.002;6.488;2024-01-06T04:21:59;1.40;99.90
54192;DHT22;40101;53.002;6.488;2024-01-06T04:24:25;1.40;99.90
54192;DHT22;40101;53.002;6.488;2024-01-06T04:26:50;1.40;99.90
54192;DHT22;40101;53.002;6.488;2024-01-06T04:29:16;1.40;99.90
54192;DHT22;40101;53.002;6.488;2024-01-06T04:31:42;1.40;99.90
54192;DHT22;40101;53.002;6.488;2024-01-06T04:34:07;1.40;99.90
54192;DHT22;40101;53.002;6.488;2024-01-06T04:36:33;1.40;99.90
54192;DHT22;40101;53.002;6.488;2024-01-06T04:38:58;1.40;99.90
54192;DHT22;40101;53.002;6.488;2024-01-06T04:41:24;1.50;99.90
54192;DHT22;40101;53.002;6.488;2024-01-06T04:43:50;1.40;99.90
54192;DHT22;40101;53.002;6.488;2024-01-06T04:46:15;1.50;99.90
54192;DHT22;40101;53.002;6.488;2024-01-06T04:48:41;1.40;99.90
54192;DHT22;40101;53.002;6.488;2024-01-06T04:51:09;1.40;99.90
54192;DHT22;40101;53.002;6.488;2024-01-06T04:53:36;1.40;99.90
54192;DHT22;40101;53.002;6.488;2024-01-06T04:56:01;1.40;99.90
54192;DHT22;40101;53.002;6.488;2024-01-06T04:58:27;1.40;99.90
54192;DHT22;40101;53.002;6.488;2024-01-06T05:00:53;1.40;99.90
54192;DHT22;40101;53.002;6.488;2024-01-06T05:03:19;1.40;99.90
54192;DHT22;40101;53.002;6.488;2024-01-06T05:05:44;1.50;99.90
54192;DHT22;40101;53.002;6.488;2024-01-06T05:08:10;1.50;99.90
54192;DHT22;40101;53.002;6.488;2024-01-06T05:10:35;1.50;99.90
54192;DHT22;40101;53.002;6.488;2024-01-06T05:13:01;1.50;99.90
54192;DHT22;40101;53.002;6.488;2024-01-06T05:15:27;1.40;99.90
54192;DHT22;40101;53.002;6.488;2024-01-06T05:17:52;1.50;99.90
54192;DHT22;40101;53.002;6.488;2024-01-06T05:20:18;1.50;99.90
54192;DHT22;40101;53.002;6.488;2024-01-06T05:22:43;1.50;99.90
54192;DHT22;40101;53.002;6.488;2024-01-06T05:25:09;1.50;99.90
54192;DHT22;40101;53.002;6.488;2024-01-06T05:27:35;1.40;99.90
54192;DHT22;40101;53.002;6.488;2024-01-06T05:30:01;1.50;99.90
54192;DHT22;40101;53.002;6.488;2024-01-06T05:32:26;1.40;99.90
54192;DHT22;40101;53.002;6.488;2024-01-06T05:34:52;1.40;99.90
54192;DHT22;40101;53.002;6.488;2024-01-06T05:37:18;1.40;99.90
54192;DHT22;40101;53.002;6.488;2024-01-06T05:39:43;1.40;99.90
54192;DHT22;40101;53.002;6.488;2024-01-06T05:42:10;1.40;99.90
54192;DHT22;40101;53.002;6.488;2024-01-06T05:44:38;1.30;99.90
54192;DHT22;40101;53.002;6.488;2024-01-06T05:47:04;1.30;99.90
54192;DHT22;40101;53.002;6.488;2024-01-06T05:49:30;1.30;99.90
54192;DHT22;40101;53.002;6.488;2024-01-06T05:51:56;1.30;99.90
54192;DHT22;40101;53.002;6.488;2024-01-06T05:54:21;1.30;99.90
54192;DHT22;40101;53.002;6.488;2024-01-06T05:56:47;1.40;99.90
54192;DHT22;40101;53.002;6.488;2024-01-06T05:59:12;1.40;99.90
54192;DHT22;40101;53.002;6.488;2024-01-06T06:01:38;1.40;99.90
54192;DHT22;40101;53.002;6.488;2024-01-06T06:04:03;1.40;99.90
54192;DHT22;40101;53.002;6.488;2024-01-06T06:06:30;1.30;99.90
54192;DHT22;40101;53.002;6.488;2024-01-06T06:08:55;1.40;99.90
54192;DHT22;40101;53.002;6.488;2024-01-06T06:11:21;1.40;99.90
54192;DHT22;40101;53.002;6.488;2024-01-06T06:13:47;1.40;99.90
54192;DHT22;40101;53.002;6.488;2024-01-06T06:16:13;1.40;99.90
54192;DHT22;40101;53.002;6.488;2024-01-06T06:18:39;1.40;99.90
54192;DHT22;40101;53.002;6.488;2024-01-06T06:21:06;1.40;99.90
54192;DHT22;40101;53.002;6.488;2024-01-06T06:23:35;1.40;99.90
54192;DHT22;40101;53.002;6.488;2024-01-06T06:26:06;1.50;99.90
54192;DHT22;40101;53.002;6.488;2024-01-06T06:28:32;1.50;99.90
54192;DHT22;40101;53.002;6.488;2024-01-06T06:30:57;1.50;99.90
54192;DHT22;40101;53.002;6.488;2024-01-06T06:33:23;1.50;99.90
54192;DHT22;40101;53.002;6.488;2024-01-06T06:35:49;1.70;99.90
54192;DHT22;40101;53.002;6.488;2024-01-06T06:38:14;1.50;99.90
54192;DHT22;40101;53.002;6.488;2024-01-06T06:40:40;1.50;99.90
54192;DHT22;40101;53.002;6.488;2024-01-06T06:43:05;1.40;99.90
54192;DHT22;40101;53.002;6.488;2024-01-06T06:45:31;1.40;99.90
54192;DHT22;40101;53.002;6.488;2024-01-06T06:47:56;1.40;99.90
54192;DHT22;40101;53.002;6.488;2024-01-06T06:50:22;1.40;99.90
54192;DHT22;40101;53.002;6.488;2024-01-06T06:52:48;1.40;99.90
54192;DHT22;40101;53.002;6.488;2024-01-06T06:55:14;1.40;99.90
54192;DHT22;40101;53.002;6.488;2024-01-06T06:57:39;1.40;99.90
54192;DHT22;40101;53.002;6.488;2024-01-06T07:00:05;1.40;99.90
54192;DHT22;40101;53.002;6.488;2024-01-06T07:02:33;1.40;99.90
54192;DHT22;40101;53.002;6.488;2024-01-06T07:04:59;1.40;99.90
54192;DHT22;40101;53.002;6.488;2024-01-06T07:07:24;1.30;99.90
54192;DHT22;40101;53.002;6.488;2024-01-06T07:09:50;1.40;99.90
54192;DHT22;40101;53.002;6.488;2024-01-06T07:12:16;1.40;99.90
54192;DHT22;40101;53.002;6.488;2024-01-06T07:14:41;1.30;99.90
54192;DHT22;40101;53.002;6.488;2024-01-06T07:17:07;1.40;99.90
54192;DHT22;40101;53.002;6.488;2024-01-06T07:19:34;1.40;99.90
54192;DHT22;40101;53.002;6.488;2024-01-06T07:22:00;1.40;99.90
54192;DHT22;40101;53.002;6.488;2024-01-06T07:24:25;1.50;99.90
54192;DHT22;40101;53.002;6.488;2024-01-06T07:26:52;1.40;99.90
54192;DHT22;40101;53.002;6.488;2024-01-06T07:29:18;1.40;99.90
54192;DHT22;40101;53.002;6.488;2024-01-06T07:31:44;1.40;99.90
54192;DHT22;40101;53.002;6.488;2024-01-06T07:34:10;1.40;99.90
54192;DHT22;40101;53.002;6.488;2024-01-06T07:36:35;1.50;99.90
54192;DHT22;40101;53.002;6.488;2024-01-06T07:39:01;1.40;99.90
54192;DHT22;40101;53.002;6.488;2024-01-06T07:41:28;1.50;99.90
54192;DHT22;40101;53.002;6.488;2024-01-06T07:43:56;1.50;99.90
54192;DHT22;40101;53.002;6.488;2024-01-06T07:46:21;1.40;99.90
54192;DHT22;40101;53.002;6.488;2024-01-06T07:48:47;1.50;99.90
54192;DHT22;40101;53.002;6.488;2024-01-06T07:51:13;1.50;99.90
54192;DHT22;40101;53.002;6.488;2024-01-06T07:53:38;1.50;99.90
54192;DHT22;40101;53.002;6.488;2024-01-06T07:56:04;1.50;99.90
54192;DHT22;40101;53.002;6.488;2024-01-06T07:58:30;1.50;99.90
54192;DHT22;40101;53.002;6.488;2024-01-06T08:00:55;1.40;99.90
54192;DHT22;40101;53.002;6.488;2024-01-06T08:03:21;1.40;99.90
54192;DHT22;40101;53.002;6.488;2024-01-06T08:05:46;1.50;99.90
54192;DHT22;40101;53.002;6.488;2024-01-06T08:08:12;1.40;99.90
54192;DHT22;40101;53.002;6.488;2024-01-06T08:10:42;1.50;99.90
54192;DHT22;40101;53.002;6.488;2024-01-06T08:13:08;1.50;99.90
54192;DHT22;40101;53.002;6.488;2024-01-06T08:15:33;1.50;99.90
54192;DHT22;40101;53.002;6.488;2024-01-06T08:17:59;1.50;99.90
54192;DHT22;40101;53.002;6.488;2024-01-06T08:20:25;1.50;99.90
54192;DHT22;40101;53.002;6.488;2024-01-06T08:22:50;1.50;99.90
54192;DHT22;40101;53.002;6.488;2024-01-06T08:25:16;1.50;99.90
54192;DHT22;40101;53.002;6.488;2024-01-06T08:27:43;1.50;99.90
54192;DHT22;40101;53.002;6.488;2024-01-06T08:30:10;1.50;99.90
54192;DHT22;40101;53.002;6.488;2024-01-06T08:32:36;1.50;99.90
54192;DHT22;40101;53.002;6.488;2024-01-06T08:35:01;1.50;99.90
54192;DHT22;40101;53.002;6.488;2024-01-06T08:37:27;1.50;99.90
54192;DHT22;40101;53.002;6.488;2024-01-06T08:39:53;1.60;99.90
54192;DHT22;40101;53.002;6.488;2024-01-06T08:42:18;1.50;99.90
54192;DHT22;40101;53.002;6.488;2024-01-06T08:44:44;1.50;99.90
54192;DHT22;40101;53.002;6.488;2024-01-06T08:47:11;1.60;99.90
54192;DHT22;40101;53.002;6.488;2024-01-06T08:49:37;1.50;99.90
54192;DHT22;40101;53.002;6.488;2024-01-06T08:52:03;1.50;99.90
54192;DHT22;40101;53.002;6.488;2024-01-06T08:54:31;1.60;99.90
54192;DHT22;40101;53.002;6.488;2024-01-06T08:56:57;1.50;99.90
54192;DHT22;40101;53.002;6.488;2024-01-06T08:59:22;1.50;99.90
54192;DHT22;40101;53.002;6.488;2024-01-06T09:01:48;1.60;99.90
54192;DHT22;40101;53.002;6.488;2024-01-06T09:04:14;1.60;99.90
54192;DHT22;40101;53.002;6.488;2024-01-06T09:06:40;1.60;99.90
54192;DHT22;40101;53.002;6.488;2024-01-06T09:09:07;1.60;99.90
54192;DHT22;40101;53.002;6.488;2024-01-06T09:11:34;1.60;99.90
54192;DHT22;40101;53.002;6.488;2024-01-06T09:13:59;1.60;99.90
54192;DHT22;40101;53.002;6.488;2024-01-06T09:16:26;1.60;99.90
54192;DHT22;40101;53.002;6.488;2024-01-06T09:18:51;1.60;99.90
54192;DHT22;40101;53.002;6.488;2024-01-06T09:21:17;1.60;99.90
54192;DHT22;40101;53.002;6.488;2024-01-06T09:23:43;1.60;99.90
54192;DHT22;40101;53.002;6.488;2024-01-06T09:26:09;1.60;99.90
54192;DHT22;40101;53.002;6.488;2024-01-06T09:28:34;1.60;99.90
54192;DHT22;40101;53.002;6.488;2024-01-06T09:31:00;1.60;99.90
54192;DHT22;40101;53.002;6.488;2024-01-06T09:33:26;1.60;99.90
54192;DHT22;40101;53.002;6.488;2024-01-06T09:35:51;1.60;99.90
54192;DHT22;40101;53.002;6.488;2024-01-06T09:38:18;1.60;99.90
54192;DHT22;40101;53.002;6.488;2024-01-06T09:40:44;1.60;99.90
54192;DHT22;40101;53.002;6.488;2024-01-06T09:43:13;1.60;99.90
54192;DHT22;40101;53.002;6.488;2024-01-06T09:45:39;1.60;99.90
54192;DHT22;40101;53.002;6.488;2024-01-06T09:48:11;1.70;99.90
54192;DHT22;40101;53.002;6.488;2024-01-06T09:50:40;1.70;99.90
54192;DHT22;40101;53.002;6.488;2024-01-06T09:53:09;1.70;99.90
54192;DHT22;40101;53.002;6.488;2024-01-06T09:55:37;1.70;99.90
54192;DHT22;40101;53.002;6.488;2024-01-06T09:58:03;1.70;99.90
54192;DHT22;40101;53.002;6.488;2024-01-06T10:00:28;1.70;99.90
54192;DHT22;40101;53.002;6.488;2024-01-06T10:02:54;1.70;99.90
54192;DHT22;40101;53.002;6.488;2024-01-06T10:05:20;1.70;99.90
54192;DHT22;40101;53.002;6.488;2024-01-06T10:07:46;1.70;99.90
54192;DHT22;40101;53.002;6.488;2024-01-06T10:10:12;1.70;99.90
54192;DHT22;40101;53.002;6.488;2024-01-06T10:12:39;1.70;99.90
54192;DHT22;40101;53.002;6.488;2024-01-06T10:15:06;1.70;99.90
54192;DHT22;40101;53.002;6.488;2024-01-06T10:17:32;1.70;99.90
54192;DHT22;40101;53.002;6.488;2024-01-06T10:19:59;1.80;99.90
54192;DHT22;40101;53.002;6.488;2024-01-06T10:22:25;1.80;99.90
54192;DHT22;40101;53.002;6.488;2024-01-06T10:24:51;1.80;99.90
54192;DHT22;40101;53.002;6.488;2024-01-06T10:27:16;1.80;99.90
54192;DHT22;40101;53.002;6.488;2024-01-06T10:29:42;1.80;99.90
54192;DHT22;40101;53.002;6.488;2024-01-06T10:32:08;1.80;99.90
54192;DHT22;40101;53.002;6.488;2024-01-06T10:34:33;1.70;99.90
54192;DHT22;40101;53.002;6.488;2024-01-06T10:37:02;1.70;99.90
54192;DHT22;40101;53.002;6.488;2024-01-06T10:39:28;1.70;99.90
54192;DHT22;40101;53.002;6.488;2024-01-06T10:41:55;1.70;99.90
54192;DHT22;40101;53.002;6.488;2024-01-06T10:44:21;1.80;99.90
54192;DHT22;40101;53.002;6.488;2024-01-06T10:46:48;1.80;99.90
54192;DHT22;40101;53.002;6.488;2024-01-06T10:49:15;1.80;99.90
54192;DHT22;40101;53.002;6.488;2024-01-06T10:51:44;1.80;99.90
54192;DHT22;40101;53.002;6.488;2024-01-06T10:54:12;1.80;99.90
54192;DHT22;40101;53.002;6.488;2024-01-06T10:56:38;1.80;99.90
54192;DHT22;40101;53.002;6.488;2024-01-06T10:59:04;1.80;99.90
54192;DHT22;40101;53.002;6.488;2024-01-06T11:01:31;1.80;99.90
54192;DHT22;40101;53.002;6.488;2024-01-06T11:03:58;1.80;99.90
54192;DHT22;40101;53.002;6.488;2024-01-06T11:06:25;1.80;99.90
54192;DHT22;40101;53.002;6.488;2024-01-06T11:09:04;1.80;99.90
54192;DHT22;40101;53.002;6.488;2024-01-06T11:11:32;1.90;99.90
54192;DHT22;40101;53.002;6.488;2024-01-06T11:14:17;1.80;99.90
54192;DHT22;40101;53.002;6.488;2024-01-06T11:16:43;1.80;99.90
54192;DHT22;40101;53.002;6.488;2024-01-06T11:24:48;1.80;99.90
54192;DHT22;40101;53.002;6.488;2024-01-06T11:27:22;1.80;99.90
54192;DHT22;40101;53.002;6.488;2024-01-06T11:29:51;1.80;99.90
54192;DHT22;40101;53.002;6.488;2024-01-06T11:32:30;1.90;99.90
54192;DHT22;40101;53.002;6.488;2024-01-06T11:35:10;1.80;99.90
54192;DHT22;40101;53.002;6.488;2024-01-06T11:45:34;2.00;99.90
54192;DHT22;40101;53.002;6.488;2024-01-06T11:48:05;2.00;99.90
54192;DHT22;40101;53.002;6.488;2024-01-06T11:50:32;2.10;99.90
54192;DHT22;40101;53.002;6.488;2024-01-06T11:52:58;2.10;99.90
54192;DHT22;40101;53.002;6.488;2024-01-06T11:55:25;2.10;99.90
54192;DHT22;40101;53.002;6.488;2024-01-06T11:57:55;2.10;99.90
54192;DHT22;40101;53.002;6.488;2024-01-06T12:00:23;2.00;99.90
54192;DHT22;40101;53.002;6.488;2024-01-06T12:02:49;2.00;99.90
54192;DHT22;40101;53.002;6.488;2024-01-06T12:05:16;2.00;99.90
54192;DHT22;40101;53.002;6.488;2024-01-06T12:07:52;2.00;99.90
54192;DHT22;40101;53.002;6.488;2024-01-06T12:10:20;1.90;99.90
54192;DHT22;40101;53.002;6.488;2024-01-06T12:13:06;1.90;99.90
54192;DHT22;40101;53.002;6.488;2024-01-06T12:15:36;1.80;99.90
54192;DHT22;40101;53.002;6.488;2024-01-06T12:18:05;1.80;99.90
54192;DHT22;40101;53.002;6.488;2024-01-06T12:20:40;2.20;99.90
54192;DHT22;40101;53.002;6.488;2024-01-06T12:23:36;1.80;99.90
54192;DHT22;40101;53.002;6.488;2024-01-06T12:26:00;1.80;99.90
54192;DHT22;40101;53.002;6.488;2024-01-06T12:28:27;2.00;99.90
54192;DHT22;40101;53.002;6.488;2024-01-06T12:30:54;1.80;99.90
54192;DHT22;40101;53.002;6.488;2024-01-06T12:33:20;1.80;99.90
54192;DHT22;40101;53.002;6.488;2024-01-06T12:35:45;1.70;99.90
54192;DHT22;40101;53.002;6.488;2024-01-06T12:38:11;1.70;99.90
54192;DHT22;40101;53.002;6.488;2024-01-06T12:40:37;1.70;99.90
54192;DHT22;40101;53.002;6.488;2024-01-06T12:43:06;1.70;99.90
54192;DHT22;40101;53.002;6.488;2024-01-06T12:45:32;1.70;99.90
54192;DHT22;40101;53.002;6.488;2024-01-06T12:47:57;1.70;99.90
54192;DHT22;40101;53.002;6.488;2024-01-06T12:50:23;1.70;99.90
54192;DHT22;40101;53.002;6.488;2024-01-06T12:52:48;1.70;99.90
54192;DHT22;40101;53.002;6.488;2024-01-06T12:55:14;1.70;99.90
54192;DHT22;40101;53.002;6.488;2024-01-06T12:57:42;1.70;99.90
54192;DHT22;40101;53.002;6.488;2024-01-06T13:00:08;1.60;99.90
54192;DHT22;40101;53.002;6.488;2024-01-06T13:02:36;1.70;99.90
54192;DHT22;40101;53.002;6.488;2024-01-06T13:05:02;1.70;99.90
54192;DHT22;40101;53.002;6.488;2024-01-06T13:07:28;1.70;99.90
54192;DHT22;40101;53.002;6.488;2024-01-06T13:09:54;1.70;99.90
54192;DHT22;40101;53.002;6.488;2024-01-06T13:12:20;1.70;99.90
54192;DHT22;40101;53.002;6.488;2024-01-06T13:14:46;1.70;99.90
54192;DHT22;40101;53.002;6.488;2024-01-06T13:17:15;1.70;99.90
54192;DHT22;40101;53.002;6.488;2024-01-06T13:19:40;1.70;99.90
54192;DHT22;40101;53.002;6.488;2024-01-06T13:22:06;1.70;99.90
54192;DHT22;40101;53.002;6.488;2024-01-06T13:24:32;1.70;99.90
54192;DHT22;40101;53.002;6.488;2024-01-06T13:26:57;2.10;99.90
54192;DHT22;40101;53.002;6.488;2024-01-06T13:29:24;1.70;99.90
54192;DHT22;40101;53.002;6.488;2024-01-06T13:31:50;1.60;99.90
54192;DHT22;40101;53.002;6.488;2024-01-06T13:34:16;1.70;99.90
54192;DHT22;40101;53.002;6.488;2024-01-06T13:36:41;1.70;99.90
54192;DHT22;40101;53.002;6.488;2024-01-06T13:39:16;1.70;99.90
54192;DHT22;40101;53.002;6.488;2024-01-06T13:41:54;1.70;99.90
54192;DHT22;40101;53.002;6.488;2024-01-06T13:44:41;1.50;99.90
54192;DHT22;40101;53.002;6.488;2024-01-06T13:47:10;1.60;99.90
54192;DHT22;40101;53.002;6.488;2024-01-06T13:49:38;1.80;99.90
54192;DHT22;40101;53.002;6.488;2024-01-06T13:52:07;1.80;99.90
54192;DHT22;40101;53.002;6.488;2024-01-06T13:54:53;2.00;99.90
54192;DHT22;40101;53.002;6.488;2024-01-06T13:57:18;1.60;99.90
54192;DHT22;40101;53.002;6.488;2024-01-06T13:59:53;2.00;99.90
54192;DHT22;40101;53.002;6.488;2024-01-06T14:02:19;1.90;99.90
54192;DHT22;40101;53.002;6.488;2024-01-06T14:04:45;1.60;99.90
54192;DHT22;40101;53.002;6.488;2024-01-06T14:07:11;1.60;99.90
54192;DHT22;40101;53.002;6.488;2024-01-06T14:09:36;1.60;99.90
54192;DHT22;40101;53.002;6.488;2024-01-06T14:12:02;1.60;99.90
54192;DHT22;40101;53.002;6.488;2024-01-06T14:14:31;1.60;99.90
54192;DHT22;40101;53.002;6.488;2024-01-06T14:16:58;1.60;99.90
54192;DHT22;40101;53.002;6.488;2024-01-06T14:19:29;1.60;99.90
54192;DHT22;40101;53.002;6.488;2024-01-06T14:21:59;1.80;99.90
54192;DHT22;40101;53.002;6.488;2024-01-06T14:24:25;1.50;99.90
54192;DHT22;40101;53.002;6.488;2024-01-06T14:26:51;1.50;99.90
54192;DHT22;40101;53.002;6.488;2024-01-06T14:29:24;1.50;99.90
54192;DHT22;40101;53.002;6.488;2024-01-06T14:31:50;1.50;99.90
54192;DHT22;40101;53.002;6.488;2024-01-06T14:34:16;1.90;99.90
54192;DHT22;40101;53.002;6.488;2024-01-06T14:36:44;1.40;99.90
54192;DHT22;40101;53.002;6.488;2024-01-06T14:39:18;1.30;99.90
54192;DHT22;40101;53.002;6.488;2024-01-06T14:41:48;1.30;99.90
54192;DHT22;40101;53.002;6.488;2024-01-06T14:44:14;1.30;99.90
54192;DHT22;40101;53.002;6.488;2024-01-06T14:46:42;1.30;99.90
54192;DHT22;40101;53.002;6.488;2024-01-06T14:49:17;1.30;99.90
54192;DHT22;40101;53.002;6.488;2024-01-06T14:51:46;1.30;99.90
54192;DHT22;40101;53.002;6.488;2024-01-06T14:54:12;1.40;99.90
54192;DHT22;40101;53.002;6.488;2024-01-06T14:56:38;1.40;99.90
54192;DHT22;40101;53.002;6.488;2024-01-06T14:59:04;1.40;99.90
54192;DHT22;40101;53.002;6.488;2024-01-06T15:01:34;1.40;99.90
54192;DHT22;40101;53.002;6.488;2024-01-06T15:04:12;1.50;99.90
54192;DHT22;40101;53.002;6.488;2024-01-06T15:06:57;1.30;99.90
54192;DHT22;40101;53.002;6.488;2024-01-06T15:09:32;1.30;99.90
54192;DHT22;40101;53.002;6.488;2024-01-06T15:11:57;1.80;99.90
54192;DHT22;40101;53.002;6.488;2024-01-06T15:14:41;1.20;99.90
54192;DHT22;40101;53.002;6.488;2024-01-06T15:17:07;1.20;99.90
54192;DHT22;40101;53.002;6.488;2024-01-06T15:19:33;1.20;99.90
54192;DHT22;40101;53.002;6.488;2024-01-06T15:21:59;1.20;99.90
54192;DHT22;40101;53.002;6.488;2024-01-06T15:24:27;1.20;99.90
54192;DHT22;40101;53.002;6.488;2024-01-06T15:26:53;1.10;99.90
54192;DHT22;40101;53.002;6.488;2024-01-06T15:29:18;1.20;99.90
54192;DHT22;40101;53.002;6.488;2024-01-06T15:31:44;0.90;99.90
54192;DHT22;40101;53.002;6.488;2024-01-06T15:34:10;1.20;99.90
54192;DHT22;40101;53.002;6.488;2024-01-06T15:36:36;1.20;99.90
54192;DHT22;40101;53.002;6.488;2024-01-06T15:39:01;1.20;99.90
54192;DHT22;40101;53.002;6.488;2024-01-06T15:41:27;1.20;99.90
54192;DHT22;40101;53.002;6.488;2024-01-06T15:43:54;1.20;99.90
54192;DHT22;40101;53.002;6.488;2024-01-06T15:46:20;1.20;99.90
54192;DHT22;40101;53.002;6.488;2024-01-06T15:48:46;1.20;99.90
54192;DHT22;40101;53.002;6.488;2024-01-06T15:51:12;1.20;99.90
54192;DHT22;40101;53.002;6.488;2024-01-06T15:53:37;1.10;99.90
54192;DHT22;40101;53.002;6.488;2024-01-06T15:56:03;1.10;99.90